createdAt,value
2022-09-02T00:01:31.507Z,63.66
2022-09-02T00:04:08.300Z,62.94
2022-09-02T00:06:36.320Z,62.81
2022-09-02T00:09:05.703Z,63.96
2022-09-02T00:11:34.235Z,64.33
2022-09-02T00:14:04.808Z,64.05
2022-09-02T00:16:33.319Z,63.95
2022-09-02T00:19:02.489Z,63.21
2022-09-02T00:21:30.264Z,63.85
2022-09-02T00:23:57.386Z,64.80
2022-09-02T00:26:24.643Z,64.85
2022-09-02T00:28:56.150Z,64.37
2022-09-02T00:31:25.242Z,63.35
2022-09-02T00:33:53.395Z,63.20
2022-09-02T00:36:21.164Z,63.37
2022-09-02T00:38:48.269Z,62.83
2022-09-02T00:41:15.542Z,62.23
2022-09-02T00:43:54.656Z,63.22
2022-09-02T00:46:25.001Z,62.69
2022-09-02T00:49:00.972Z,61.98
2022-09-02T00:51:32.076Z,63.33
2022-09-02T00:53:59.655Z,64.20
2022-09-02T00:56:28.615Z,63.66
2022-09-02T00:58:56.048Z,64.42
2022-09-02T01:01:23.534Z,65.11
2022-09-02T01:03:51.384Z,64.69
2022-09-02T01:06:21.852Z,63.78
2022-09-02T01:08:54.333Z,63.41
2022-09-02T01:11:22.700Z,63.61
2022-09-02T01:13:49.841Z,63.33
2022-09-02T01:16:24.705Z,63.13
2022-09-02T01:18:55.688Z,64.17
2022-09-02T01:21:23.267Z,65.90
2022-09-02T01:23:52.236Z,65.18
2022-09-02T01:26:19.662Z,63.72
2022-09-02T01:28:47.222Z,62.69
2022-09-02T01:31:14.717Z,62.47
2022-09-02T01:33:41.905Z,62.32
2022-09-02T01:36:11.002Z,62.44
2022-09-02T01:38:38.781Z,63.15
2022-09-02T01:41:05.967Z,62.14
2022-09-02T01:43:33.312Z,63.31
2022-09-02T01:46:02.042Z,63.13
2022-09-02T01:48:29.222Z,63.26
2022-09-02T01:50:59.325Z,63.26
2022-09-02T01:53:27.215Z,62.71
2022-09-02T01:55:54.374Z,62.94
2022-09-02T01:58:21.898Z,63.82
2022-09-02T02:00:49.110Z,63.78
2022-09-02T02:03:16.578Z,63.58
2022-09-02T02:05:43.767Z,62.89
2022-09-02T02:08:11.079Z,62.82
2022-09-02T02:10:40.871Z,63.94
2022-09-02T02:13:08.237Z,64.60
2022-09-02T02:15:38.762Z,64.64
2022-09-02T02:18:05.906Z,63.65
2022-09-02T02:20:33.076Z,65.62
2022-09-02T02:23:00.406Z,66.39
2022-09-02T02:25:28.041Z,65.44
2022-09-02T02:27:55.277Z,66.05
2022-09-02T02:30:23.727Z,65.08
2022-09-02T02:32:50.906Z,64.96
2022-09-02T02:35:19.134Z,64.72
2022-09-02T02:37:49.099Z,64.50
2022-09-02T02:40:19.543Z,64.61
2022-09-02T02:42:47.360Z,65.06
2022-09-02T02:45:15.391Z,65.51
2022-09-02T02:47:45.980Z,64.59
2022-09-02T02:50:15.801Z,65.29
2022-09-02T02:52:43.656Z,65.46
2022-09-02T02:55:13.069Z,67.21
2022-09-02T02:57:42.719Z,67.27
2022-09-02T03:00:12.443Z,66.29
2022-09-02T03:02:39.731Z,65.48
2022-09-02T03:05:08.399Z,64.91
2022-09-02T03:07:35.511Z,66.57
2022-09-02T03:10:08.160Z,66.66
2022-09-02T03:12:36.721Z,67.03
2022-09-02T03:15:04.703Z,66.66
2022-09-02T03:17:31.874Z,67.26
2022-09-02T03:19:59.461Z,67.51
2022-09-02T03:22:27.311Z,66.84
2022-09-02T03:24:54.613Z,66.35
2022-09-02T03:27:21.882Z,68.17
2022-09-02T03:29:48.984Z,67.61
2022-09-02T03:32:16.098Z,67.36
2022-09-02T03:34:43.663Z,67.53
2022-09-02T03:37:10.827Z,66.70
2022-09-02T03:39:39.638Z,66.27
2022-09-02T03:42:07.308Z,66.19
2022-09-02T03:44:44.996Z,66.62
2022-09-02T03:47:13.965Z,68.21
2022-09-02T03:49:41.297Z,67.28
2022-09-02T03:52:11.031Z,67.54
2022-09-02T03:54:38.136Z,67.79
2022-09-02T03:57:05.784Z,68.19
2022-09-02T03:59:33.041Z,68.46
2022-09-02T04:02:03.535Z,68.36
2022-09-02T04:04:30.784Z,67.48
2022-09-02T04:06:58.170Z,67.88
2022-09-02T04:09:25.291Z,67.65
2022-09-02T04:11:52.375Z,69.65
2022-09-02T04:14:19.660Z,69.46
2022-09-02T04:16:47.167Z,68.56
2022-09-02T04:19:14.273Z,69.10
2022-09-02T04:21:41.947Z,69.39
2022-09-02T04:24:10.348Z,68.46
2022-09-02T04:26:37.668Z,69.99
2022-09-02T04:29:12.033Z,69.05
2022-09-02T04:31:39.149Z,68.80
2022-09-02T04:34:07.392Z,68.28
2022-09-02T04:36:34.844Z,69.08
2022-09-02T04:39:02.013Z,69.08
2022-09-02T04:41:30.285Z,69.10
2022-09-02T04:43:59.512Z,68.62
2022-09-02T04:46:34.405Z,69.44
2022-09-02T04:49:02.682Z,68.16
2022-09-02T04:51:29.760Z,68.92
2022-09-02T04:53:56.849Z,70.67
2022-09-02T04:56:26.096Z,70.48
2022-09-02T04:58:54.428Z,70.54
2022-09-02T05:01:24.687Z,69.31
2022-09-02T05:03:52.207Z,68.87
2022-09-02T05:06:27.403Z,68.52
2022-09-02T05:08:56.313Z,68.70
2022-09-02T05:11:28.337Z,68.96
2022-09-02T05:13:58.021Z,71.41
2022-09-02T05:16:28.176Z,70.69
2022-09-02T05:18:55.852Z,71.89
2022-09-02T05:21:24.075Z,70.66
2022-09-02T05:23:52.126Z,69.63
2022-09-02T05:26:22.618Z,69.60
2022-09-02T05:28:50.493Z,70.60
2022-09-02T05:31:19.415Z,70.85
2022-09-02T05:33:46.851Z,70.09
2022-09-02T05:36:21.395Z,71.12
2022-09-02T05:38:49.010Z,69.67
2022-09-02T05:41:23.232Z,69.17
2022-09-02T05:43:55.613Z,68.83
2022-09-02T05:46:24.404Z,68.88
2022-09-02T05:49:17.211Z,70.52
2022-09-02T05:51:50.650Z,69.87
2022-09-02T05:54:28.561Z,70.01
2022-09-02T05:56:58.103Z,69.17
2022-09-02T05:59:26.910Z,68.93
2022-09-02T06:01:54.353Z,69.17
2022-09-02T06:04:22.463Z,67.97
2022-09-02T06:06:50.182Z,68.17
2022-09-02T06:09:21.127Z,68.22
2022-09-02T06:11:51.688Z,67.75
2022-09-02T06:14:21.848Z,68.22
2022-09-02T06:16:50.322Z,69.42
2022-09-02T06:19:20.437Z,69.04
2022-09-02T06:21:49.128Z,69.56
2022-09-02T06:24:16.229Z,69.67
2022-09-02T06:26:43.739Z,69.44
2022-09-02T06:29:11.031Z,68.89
2022-09-02T06:31:41.352Z,68.54
2022-09-02T06:34:09.093Z,68.19
2022-09-02T06:36:36.169Z,69.26
2022-09-02T06:39:03.273Z,68.46
2022-09-02T06:41:33.360Z,67.68
2022-09-02T06:44:02.594Z,69.34
2022-09-02T06:46:33.934Z,68.57
2022-09-02T06:49:01.667Z,68.31
2022-09-02T06:51:33.156Z,69.75
2022-09-02T06:54:00.730Z,68.32
2022-09-02T06:56:28.718Z,67.88
2022-09-02T06:58:56.536Z,66.79
2022-09-02T07:01:27.171Z,66.29
2022-09-02T07:04:13.147Z,66.58
2022-09-02T07:06:41.013Z,68.10
2022-09-02T07:09:10.858Z,66.27
2022-09-02T07:11:39.934Z,66.17
2022-09-02T07:14:06.990Z,66.14
2022-09-02T07:16:42.165Z,66.06
2022-09-02T07:19:14.064Z,65.98
2022-09-02T07:21:43.679Z,65.66
2022-09-02T07:24:12.950Z,65.93
2022-09-02T07:26:40.659Z,67.14
2022-09-02T07:29:08.976Z,66.23
2022-09-02T07:31:38.476Z,66.04
2022-09-02T07:34:06.511Z,65.78
2022-09-02T07:36:34.966Z,65.41
2022-09-02T07:39:04.513Z,66.36
2022-09-02T07:41:31.792Z,65.19
2022-09-02T07:43:59.815Z,65.20
2022-09-02T07:46:29.444Z,64.76
2022-09-02T07:48:57.021Z,64.37
2022-09-02T07:51:24.203Z,64.28
2022-09-02T07:53:58.098Z,64.81
2022-09-02T07:56:25.448Z,64.50
2022-09-02T07:58:52.871Z,65.47
2022-09-02T08:01:23.570Z,64.68
2022-09-02T08:03:51.743Z,64.57
2022-09-02T08:06:33.792Z,65.21
2022-09-02T08:09:11.149Z,64.02
2022-09-02T08:11:40.314Z,63.45
2022-09-02T08:14:11.369Z,63.46
2022-09-02T08:16:39.212Z,63.28
2022-09-02T08:19:07.996Z,63.54
2022-09-02T08:21:35.493Z,63.48
2022-09-02T08:24:02.757Z,63.01
2022-09-02T08:26:30.295Z,63.11
2022-09-02T08:28:57.665Z,63.07
2022-09-02T08:31:24.849Z,62.88
2022-09-02T08:33:52.028Z,62.73
2022-09-02T08:36:21.000Z,63.29
2022-09-02T08:38:50.797Z,62.69
2022-09-02T08:41:21.712Z,62.81
2022-09-02T08:43:50.510Z,62.49
2022-09-02T08:46:18.635Z,62.17
2022-09-02T08:48:54.146Z,61.68
2022-09-02T08:51:33.803Z,61.67
2022-09-02T08:54:06.177Z,61.29
2022-09-02T08:56:33.331Z,60.91
2022-09-02T08:59:03.110Z,60.72
2022-09-02T09:01:38.295Z,59.97
2022-09-02T09:04:14.105Z,60.25
2022-09-02T09:06:50.232Z,60.13
2022-09-02T09:09:45.108Z,59.48
2022-09-02T09:12:41.535Z,59.06
2022-09-02T09:15:50.221Z,58.76
2022-09-02T09:18:24.193Z,58.09
2022-09-02T09:20:51.395Z,57.05
2022-09-02T09:23:34.874Z,56.91
2022-09-02T09:26:12.178Z,57.14
2022-09-02T09:28:44.705Z,55.36
2022-09-02T09:31:24.984Z,55.17
2022-09-02T09:34:12.829Z,54.18
2022-09-02T09:36:47.964Z,54.80
2022-09-02T09:39:26.127Z,54.17
2022-09-02T09:41:57.830Z,54.32
2022-09-02T09:44:46.121Z,54.35
2022-09-02T09:47:19.574Z,53.05
2022-09-02T09:49:48.614Z,53.70
2022-09-02T09:52:23.507Z,52.38
2022-09-02T09:55:12.662Z,51.57
2022-09-02T09:57:44.690Z,52.51
2022-09-02T10:00:16.353Z,52.84
2022-09-02T10:02:51.271Z,51.89
2022-09-02T10:05:19.975Z,51.78
2022-09-02T10:07:59.312Z,51.40
2022-09-02T10:10:28.886Z,51.08
2022-09-02T10:13:00.154Z,50.68
2022-09-02T10:15:38.663Z,50.29
2022-09-02T10:18:22.407Z,50.81
2022-09-02T10:21:16.557Z,50.39
2022-09-02T10:23:52.709Z,49.08
2022-09-02T10:29:21.064Z,50.04
2022-09-02T10:32:05.392Z,50.13
2022-09-02T10:34:50.836Z,49.46
2022-09-02T10:37:19.670Z,48.58
2022-09-02T10:40:10.223Z,49.45
2022-09-02T10:43:07.235Z,46.63
2022-09-02T10:46:01.114Z,47.78
2022-09-02T10:49:05.726Z,48.48
2022-09-02T10:51:45.073Z,46.67
2022-09-02T10:54:23.470Z,48.19
2022-09-02T10:57:15.724Z,47.00
2022-09-02T10:59:56.623Z,47.10
2022-09-02T11:02:32.052Z,46.73
2022-09-02T11:05:03.808Z,46.11
2022-09-02T11:07:41.757Z,45.34
2022-09-02T11:10:12.580Z,44.37
2022-09-02T11:12:44.424Z,44.38
2022-09-02T11:15:17.407Z,45.40
2022-09-02T11:17:49.636Z,45.03
2022-09-02T11:20:45.672Z,43.37
2022-09-02T11:23:40.070Z,43.92
2022-09-02T11:26:12.091Z,44.28
2022-09-02T11:28:59.787Z,43.86
2022-09-02T11:31:39.323Z,43.71
2022-09-02T11:34:21.507Z,43.02
2022-09-02T11:36:49.144Z,43.28
2022-09-02T11:39:42.835Z,41.93
2022-09-02T11:42:22.777Z,40.98
2022-09-02T11:45:10.249Z,39.61
2022-09-02T11:47:52.971Z,38.80
2022-09-02T11:50:40.449Z,39.39
2022-09-02T11:53:17.995Z,37.80
2022-09-02T11:55:50.986Z,36.55
2022-09-02T11:58:39.075Z,38.21
2022-09-02T12:01:15.042Z,37.93
2022-09-02T12:07:09.122Z,36.12
2022-09-02T12:12:36.766Z,36.50
2022-09-02T12:15:04.820Z,36.62
2022-09-02T12:17:39.943Z,36.84
2022-09-02T12:20:11.128Z,36.38
2022-09-02T12:22:39.949Z,36.01
2022-09-02T12:25:28.220Z,35.50
2022-09-02T12:28:25.285Z,35.55
2022-09-02T12:30:56.018Z,34.84
2022-09-02T12:33:36.688Z,34.77
2022-09-02T12:36:05.325Z,34.52
2022-09-02T12:38:40.190Z,33.80
2022-09-02T12:41:13.157Z,35.21
2022-09-02T12:43:47.944Z,35.46
2022-09-02T12:46:27.747Z,36.10
2022-09-02T12:49:04.819Z,35.64
2022-09-02T12:51:51.655Z,36.69
2022-09-02T12:54:24.707Z,36.36
2022-09-02T12:56:52.647Z,36.46
2022-09-02T12:59:37.603Z,36.47
2022-09-02T13:02:14.620Z,36.18
2022-09-02T13:04:45.074Z,36.86
2022-09-02T13:07:33.298Z,36.29
2022-09-02T13:10:22.328Z,36.44
2022-09-02T13:13:04.535Z,37.64
2022-09-02T13:15:52.041Z,37.53
2022-09-02T13:18:50.559Z,36.64
2022-09-02T13:21:45.428Z,36.54
2022-09-02T13:24:29.556Z,35.86
2022-09-02T13:27:15.985Z,36.14
2022-09-02T13:30:03.056Z,35.67
2022-09-02T13:32:30.911Z,35.48
2022-09-02T13:35:02.034Z,35.98
2022-09-02T13:37:39.185Z,34.99
2022-09-02T13:40:21.839Z,34.53
2022-09-02T13:42:54.895Z,34.76
2022-09-02T13:45:26.519Z,35.94
2022-09-02T13:47:55.800Z,35.41
2022-09-02T13:50:25.548Z,34.28
2022-09-02T13:53:49.277Z,35.69
2022-09-02T13:55:49.738Z,33.88
2022-09-02T13:58:28.870Z,34.80
2022-09-02T14:01:01.701Z,34.90
2022-09-02T14:03:32.661Z,33.57
2022-09-02T14:06:00.808Z,33.57
2022-09-02T14:08:29.136Z,33.36
2022-09-02T14:10:56.619Z,33.21
2022-09-02T14:13:23.900Z,31.58
2022-09-02T14:15:51.061Z,32.52
2022-09-02T14:18:20.575Z,30.69
2022-09-02T14:21:00.049Z,30.77
2022-09-02T14:23:29.247Z,30.68
2022-09-02T14:25:58.554Z,31.00
2022-09-02T14:28:33.806Z,30.11
2022-09-02T14:31:08.777Z,30.75
2022-09-02T14:33:35.912Z,30.19
2022-09-02T14:36:06.163Z,30.21
2022-09-02T14:38:48.939Z,29.66
2022-09-02T14:41:23.354Z,28.99
2022-09-02T14:43:57.097Z,29.41
2022-09-02T14:46:30.032Z,27.18
2022-09-02T14:49:01.745Z,28.06
2022-09-02T14:51:34.219Z,28.12
2022-09-02T14:54:01.578Z,29.32
2022-09-02T14:56:45.387Z,29.44
2022-09-02T14:59:12.532Z,29.70
2022-09-02T15:01:41.595Z,29.07
2022-09-02T15:04:09.501Z,28.89
2022-09-02T15:06:36.643Z,30.77
2022-09-02T15:09:04.381Z,30.99
2022-09-02T15:11:31.737Z,31.22
2022-09-02T15:13:59.192Z,31.02
2022-09-02T15:16:26.270Z,30.10
2022-09-02T15:18:53.448Z,30.84
2022-09-02T15:21:20.988Z,30.86
2022-09-02T15:23:51.281Z,30.28
2022-09-02T15:26:18.534Z,29.76
2022-09-02T15:28:45.661Z,28.89
2022-09-02T15:31:13.144Z,27.55
2022-09-02T15:33:41.901Z,27.18
2022-09-02T15:36:11.822Z,26.62
2022-09-02T15:38:40.976Z,27.55
2022-09-02T15:41:12.856Z,28.25
2022-09-02T15:43:40.291Z,29.12
2022-09-02T15:46:27.248Z,28.89
2022-09-02T15:49:01.668Z,29.42
2022-09-02T15:51:29.793Z,29.31
2022-09-02T15:53:58.717Z,29.55
2022-09-02T15:56:27.579Z,29.91
2022-09-02T15:58:59.662Z,29.51
2022-09-02T16:01:28.140Z,28.68
2022-09-02T16:03:55.884Z,29.57
2022-09-02T16:06:23.089Z,28.96
2022-09-02T16:08:50.599Z,29.01
2022-09-02T16:11:18.840Z,28.78
2022-09-02T16:13:45.910Z,27.38
2022-09-02T16:16:13.945Z,27.66
2022-09-02T16:18:42.228Z,27.69
2022-09-02T16:21:11.059Z,27.89
2022-09-02T16:23:38.644Z,27.54
2022-09-02T16:26:11.366Z,28.36
2022-09-02T16:28:39.991Z,28.80
2022-09-02T16:31:08.632Z,29.14
2022-09-02T16:33:36.017Z,29.57
2022-09-02T16:36:04.368Z,30.25
2022-09-02T16:38:31.669Z,31.15
2022-09-02T16:40:58.829Z,30.82
2022-09-02T16:43:25.958Z,31.49
2022-09-02T16:45:54.284Z,31.28
2022-09-02T16:48:25.809Z,30.87
2022-09-02T16:50:53.040Z,31.24
2022-09-02T16:53:20.151Z,31.97
2022-09-02T16:55:47.491Z,32.72
2022-09-02T16:58:14.600Z,31.46
2022-09-02T17:00:42.013Z,31.77
2022-09-02T17:03:12.440Z,32.62
2022-09-02T17:05:39.740Z,32.49
2022-09-02T17:08:07.116Z,32.94
2022-09-02T17:10:35.130Z,33.38
2022-09-02T17:13:02.329Z,34.05
2022-09-02T17:15:30.691Z,33.93
2022-09-02T17:17:57.855Z,33.88
2022-09-02T17:20:25.285Z,34.29
2022-09-02T17:22:52.577Z,34.46
2022-09-02T17:25:19.718Z,34.52
2022-09-02T17:27:46.776Z,35.17
2022-09-02T17:30:13.864Z,35.12
2022-09-02T17:32:41.355Z,34.88
2022-09-02T17:35:09.617Z,35.94
2022-09-02T17:37:37.325Z,35.72
2022-09-02T17:40:06.281Z,36.25
2022-09-02T17:42:33.870Z,36.72
2022-09-02T17:45:01.200Z,37.01
2022-09-02T17:47:31.592Z,36.63
2022-09-02T17:49:59.159Z,36.44
2022-09-02T17:52:26.601Z,36.56
2022-09-02T17:54:54.222Z,36.31
2022-09-02T17:57:42.912Z,36.89
2022-09-02T18:00:26.472Z,37.10
2022-09-02T18:02:59.180Z,37.03
2022-09-02T18:05:53.261Z,37.34
2022-09-02T18:08:36.423Z,37.87
2022-09-02T18:11:06.538Z,37.34
2022-09-02T18:14:08.594Z,37.48
2022-09-02T18:17:14.392Z,37.83
2022-09-02T18:20:03.544Z,38.20
2022-09-02T18:22:51.084Z,38.35
2022-09-02T18:25:38.798Z,38.30
2022-09-02T18:28:17.405Z,38.35
2022-09-02T18:30:54.633Z,39.10
2022-09-02T18:33:43.411Z,39.47
2022-09-02T18:36:22.979Z,39.41
2022-09-02T18:39:19.188Z,39.59
2022-09-02T18:42:08.211Z,39.47
2022-09-02T18:44:58.347Z,39.54
2022-09-02T18:47:29.771Z,39.65
2022-09-02T18:49:58.694Z,39.95
2022-09-02T18:52:28.072Z,40.14
2022-09-02T18:55:14.955Z,40.17
2022-09-02T18:57:51.481Z,40.55
2022-09-02T19:00:22.714Z,40.36
2022-09-02T19:03:05.473Z,40.77
2022-09-02T19:05:36.102Z,41.10
2022-09-02T19:08:25.977Z,41.32
2022-09-02T19:11:09.321Z,41.22
2022-09-02T19:13:55.451Z,41.83
2022-09-02T19:16:30.156Z,41.53
2022-09-02T19:18:57.276Z,41.47
2022-09-02T19:21:35.225Z,41.33
2022-09-02T19:24:04.491Z,41.62
2022-09-02T19:26:31.775Z,41.59
2022-09-02T19:28:59.503Z,42.35
2022-09-02T19:31:28.269Z,42.09
2022-09-02T19:33:57.189Z,42.41
2022-09-02T19:36:29.428Z,42.48
2022-09-02T19:39:00.038Z,42.76
2022-09-02T19:41:27.923Z,42.33
2022-09-02T19:43:55.064Z,42.75
2022-09-02T19:46:56.100Z,43.39
2022-09-02T19:49:10.433Z,43.07
2022-09-02T19:51:37.607Z,43.00
2022-09-02T19:54:04.759Z,43.46
2022-09-02T19:56:31.818Z,43.28
2022-09-02T19:58:59.054Z,43.13
2022-09-02T20:01:26.424Z,43.36
2022-09-02T20:03:53.571Z,43.70
2022-09-02T20:06:20.603Z,43.31
2022-09-02T20:08:47.994Z,43.83
2022-09-02T20:11:15.144Z,43.68
2022-09-02T20:13:42.440Z,43.50
2022-09-02T20:16:20.397Z,43.52
2022-09-02T20:18:52.961Z,43.99
2022-09-02T20:21:23.308Z,43.87
2022-09-02T20:23:50.698Z,44.04
2022-09-02T20:26:20.601Z,44.71
2022-09-02T20:28:56.191Z,44.29
2022-09-02T20:31:54.296Z,44.11
2022-09-02T20:34:29.832Z,44.85
2022-09-02T20:37:15.866Z,44.99
2022-09-02T20:40:06.788Z,45.14
2022-09-02T20:42:52.432Z,45.88
2022-09-02T20:45:26.479Z,45.04
2022-09-02T20:48:27.402Z,44.96
2022-09-02T20:51:08.248Z,45.41
2022-09-02T20:54:13.020Z,45.03
2022-09-02T20:57:07.572Z,45.69
2022-09-02T21:00:02.274Z,45.16
2022-09-02T21:02:33.924Z,44.98
2022-09-02T21:05:12.091Z,44.29
2022-09-02T21:07:45.579Z,45.62
2022-09-02T21:10:22.199Z,45.28
2022-09-02T21:12:55.095Z,46.08
2022-09-02T21:15:28.938Z,46.41
2022-09-02T21:18:19.037Z,46.53
2022-09-02T21:20:59.450Z,46.20
2022-09-02T21:23:46.662Z,46.65
2022-09-02T21:26:18.555Z,46.96
2022-09-02T21:28:55.418Z,47.56
2022-09-02T21:31:29.702Z,46.39
2022-09-02T21:34:01.092Z,47.22
2022-09-02T21:36:30.319Z,47.57
2022-09-02T21:38:58.390Z,47.59
2022-09-02T21:41:29.008Z,47.00
2022-09-02T21:44:05.336Z,46.76
2022-09-02T21:46:38.202Z,47.07
2022-09-02T21:49:36.935Z,47.58
2022-09-02T21:52:06.702Z,46.84
2022-09-02T21:55:13.695Z,46.79
2022-09-02T21:58:14.596Z,46.68
2022-09-02T22:01:00.700Z,46.41
2022-09-02T22:03:41.757Z,46.65
2022-09-02T22:06:16.085Z,47.69
2022-09-02T22:08:50.314Z,46.95
2022-09-02T22:11:33.050Z,47.80
2022-09-02T22:14:28.123Z,47.51
2022-09-02T22:17:01.650Z,47.42
2022-09-02T22:19:31.842Z,47.90
2022-09-02T22:22:09.034Z,48.32
2022-09-02T22:24:37.436Z,48.12
2022-09-02T22:27:11.350Z,48.14
2022-09-02T22:29:53.440Z,47.91
2022-09-02T22:32:23.616Z,48.16
2022-09-02T22:35:09.382Z,48.65
2022-09-02T22:37:58.361Z,49.07
2022-09-02T22:40:28.907Z,48.25
2022-09-02T22:43:00.751Z,48.48
2022-09-02T22:45:52.735Z,48.28
2022-09-02T22:48:51.220Z,48.30
2022-09-02T22:51:46.989Z,49.40
2022-09-02T22:54:14.470Z,48.39
2022-09-02T22:57:03.262Z,48.97
2022-09-02T22:59:48.720Z,48.73
2022-09-02T23:02:27.104Z,48.72
2022-09-02T23:05:49.243Z,49.22
2022-09-02T23:08:20.338Z,49.03
2022-09-02T23:10:57.426Z,48.93
2022-09-02T23:13:45.841Z,49.17
2022-09-02T23:16:27.985Z,49.49
2022-09-02T23:19:34.765Z,49.57
2022-09-02T23:22:04.799Z,49.00
2022-09-02T23:24:56.118Z,49.75
2022-09-02T23:27:30.932Z,50.06
2022-09-02T23:29:58.103Z,49.62
2022-09-02T23:32:43.356Z,49.22
2022-09-02T23:35:17.360Z,49.48
2022-09-02T23:38:01.486Z,49.42
2022-09-02T23:40:54.506Z,49.50
2022-09-02T23:43:21.950Z,49.74
2022-09-02T23:45:49.110Z,48.89
2022-09-02T23:48:36.604Z,49.77
2022-09-02T23:51:24.950Z,50.05
2022-09-02T23:54:19.554Z,49.60
2022-09-02T23:57:01.291Z,50.07
